createdAt,value
2023-05-20T00:01:18.933Z,7.90
2023-05-20T00:03:46.603Z,7.00
2023-05-20T00:06:13.594Z,7.80
2023-05-20T00:08:40.568Z,7.17
2023-05-20T00:11:07.726Z,6.80
2023-05-20T00:13:36.196Z,7.33
2023-05-20T00:16:03.112Z,7.33
2023-05-20T00:18:30.051Z,5.60
2023-05-20T00:20:56.957Z,6.77
2023-05-20T00:23:23.810Z,8.03
2023-05-20T00:25:50.924Z,6.07
2023-05-20T00:28:17.761Z,6.50
2023-05-20T00:30:44.667Z,6.00
2023-05-20T00:33:11.586Z,6.30
2023-05-20T00:35:38.447Z,5.50
2023-05-20T00:38:05.843Z,5.93
2023-05-20T00:40:32.677Z,6.23
2023-05-20T00:42:59.508Z,7.10
2023-05-20T00:45:26.497Z,5.97
2023-05-20T00:47:53.521Z,6.10
2023-05-20T00:50:20.889Z,7.10
2023-05-20T00:52:48.365Z,5.70
2023-05-20T00:55:15.230Z,5.67
2023-05-20T00:57:42.100Z,4.70
2023-05-20T01:00:10.871Z,4.83
2023-05-20T01:02:38.293Z,5.60
2023-05-20T01:05:05.666Z,6.00
2023-05-20T01:07:33.018Z,5.53
2023-05-20T01:10:00.657Z,5.30
2023-05-20T01:12:49.476Z,5.67
2023-05-20T01:15:16.816Z,6.00
2023-05-20T01:17:46.822Z,5.67
2023-05-20T01:20:14.852Z,4.83
2023-05-20T01:22:54.509Z,4.30
2023-05-20T01:25:22.156Z,5.73
2023-05-20T01:27:50.265Z,4.37
2023-05-20T01:30:17.596Z,5.70
2023-05-20T01:32:51.819Z,4.83
2023-05-20T01:35:19.098Z,5.47
2023-05-20T01:37:47.415Z,4.67
2023-05-20T01:40:18.484Z,5.80
2023-05-20T01:42:46.573Z,5.10
2023-05-20T01:45:13.470Z,5.60
2023-05-20T01:47:40.891Z,4.87
2023-05-20T01:50:08.303Z,4.43
2023-05-20T01:52:35.244Z,4.90
2023-05-20T01:55:02.107Z,4.97
2023-05-20T01:57:28.970Z,4.30
2023-05-20T01:59:55.763Z,5.23
2023-05-20T02:02:22.695Z,5.00
2023-05-20T02:04:51.439Z,4.33
2023-05-20T02:07:19.129Z,4.37
2023-05-20T02:09:46.704Z,4.70
2023-05-20T02:12:17.058Z,4.90
2023-05-20T02:14:45.908Z,4.10
2023-05-20T02:17:16.259Z,5.20
2023-05-20T02:19:44.081Z,4.40
2023-05-20T02:22:11.176Z,4.70
2023-05-20T02:24:38.003Z,4.73
2023-05-20T02:27:06.385Z,4.70
2023-05-20T02:29:33.347Z,4.87
2023-05-20T02:32:00.216Z,4.23
2023-05-20T02:34:28.150Z,4.83
2023-05-20T02:36:55.086Z,4.50
2023-05-20T02:39:22.033Z,4.30
2023-05-20T02:41:49.224Z,4.47
2023-05-20T02:44:16.932Z,4.07
2023-05-20T02:46:43.946Z,3.60
2023-05-20T02:49:10.882Z,3.83
2023-05-20T02:51:37.746Z,4.90
2023-05-20T02:54:04.711Z,4.60
2023-05-20T02:56:32.615Z,4.33
2023-05-20T02:59:00.225Z,4.10
2023-05-20T03:01:27.164Z,4.43
2023-05-20T03:03:54.628Z,5.17
2023-05-20T03:06:21.634Z,4.90
2023-05-20T03:08:48.498Z,4.33
2023-05-20T03:11:16.114Z,4.00
2023-05-20T03:13:42.918Z,3.97
2023-05-20T03:16:13.234Z,3.93
2023-05-20T03:18:40.810Z,4.97
2023-05-20T03:21:07.645Z,3.93
2023-05-20T03:23:34.818Z,4.10
2023-05-20T03:26:01.846Z,4.87
2023-05-20T03:28:28.743Z,3.67
2023-05-20T03:30:55.829Z,4.03
2023-05-20T03:33:26.172Z,4.47
2023-05-20T03:35:53.745Z,4.07
2023-05-20T03:38:20.670Z,3.80
2023-05-20T03:40:47.430Z,3.90
2023-05-20T03:43:14.879Z,4.80
2023-05-20T03:45:41.869Z,3.90
2023-05-20T03:48:08.776Z,4.57
2023-05-20T03:50:35.969Z,4.37
2023-05-20T03:53:02.990Z,3.93
2023-05-20T03:55:29.896Z,5.00
2023-05-20T03:57:57.035Z,4.17
2023-05-20T04:00:24.153Z,4.43
2023-05-20T04:02:51.071Z,4.93
2023-05-20T04:05:18.051Z,4.80
2023-05-20T04:07:44.910Z,5.53
2023-05-20T04:10:11.976Z,3.97
2023-05-20T04:12:38.850Z,4.23
2023-05-20T04:15:06.809Z,4.03
2023-05-20T04:17:33.980Z,4.20
2023-05-20T04:20:00.846Z,5.00
2023-05-20T04:22:27.888Z,4.83
2023-05-20T04:24:56.557Z,3.60
2023-05-20T04:27:23.794Z,3.30
2023-05-20T04:29:50.714Z,4.03
2023-05-20T04:32:19.282Z,3.73
2023-05-20T04:34:46.762Z,3.90
2023-05-20T04:37:13.936Z,3.30
2023-05-20T04:39:40.830Z,4.10
2023-05-20T04:42:07.698Z,4.37
2023-05-20T04:44:34.628Z,3.27
2023-05-20T04:47:01.621Z,3.90
2023-05-20T04:49:31.257Z,3.67
2023-05-20T04:51:58.641Z,2.93
2023-05-20T04:54:25.609Z,3.90
2023-05-20T04:56:52.507Z,3.40
2023-05-20T04:59:19.388Z,3.53
2023-05-20T05:01:46.294Z,3.77
2023-05-20T05:04:13.184Z,2.90
2023-05-20T05:06:40.135Z,2.80
2023-05-20T05:09:08.016Z,4.10
2023-05-20T05:11:34.933Z,3.10
2023-05-20T05:14:01.862Z,3.37
2023-05-20T05:16:28.719Z,3.60
2023-05-20T05:18:55.607Z,3.40
2023-05-20T05:21:22.526Z,3.13
2023-05-20T05:23:49.323Z,3.80
2023-05-20T05:26:16.362Z,3.77
2023-05-20T05:28:46.162Z,3.70
2023-05-20T05:31:13.092Z,3.23
2023-05-20T05:33:39.894Z,2.50
2023-05-20T05:36:06.940Z,2.93
2023-05-20T05:38:33.813Z,3.17
2023-05-20T05:41:00.816Z,2.60
2023-05-20T05:43:27.675Z,3.00
2023-05-20T05:45:55.077Z,2.60
2023-05-20T05:48:26.594Z,2.77
2023-05-20T05:50:53.856Z,3.50
2023-05-20T05:53:21.381Z,2.73
2023-05-20T05:55:48.206Z,2.40
2023-05-20T05:58:15.212Z,2.80
2023-05-20T06:00:42.119Z,3.07
2023-05-20T06:03:09.017Z,3.10
2023-05-20T06:05:36.307Z,3.10
2023-05-20T06:08:03.617Z,2.53
2023-05-20T06:10:30.564Z,3.40
2023-05-20T06:12:57.366Z,2.80
2023-05-20T06:15:24.269Z,3.07
2023-05-20T06:17:51.359Z,3.10
2023-05-20T06:20:18.277Z,3.50
2023-05-20T06:22:47.783Z,3.37
2023-05-20T06:25:14.879Z,2.67
2023-05-20T06:27:41.763Z,3.13
2023-05-20T06:30:09.205Z,2.80
2023-05-20T06:32:36.032Z,2.97
2023-05-20T06:35:02.889Z,3.37
2023-05-20T06:37:29.710Z,3.03
2023-05-20T06:39:56.623Z,3.37
2023-05-20T06:42:24.021Z,3.30
2023-05-20T06:44:50.850Z,2.33
2023-05-20T06:47:18.305Z,2.73
2023-05-20T06:49:47.572Z,2.90
2023-05-20T06:52:14.694Z,2.80
2023-05-20T06:54:42.188Z,3.33
2023-05-20T06:57:09.768Z,2.33
2023-05-20T06:59:37.511Z,2.83
2023-05-20T07:02:05.708Z,3.33
2023-05-20T07:04:32.646Z,3.33
2023-05-20T07:06:59.462Z,3.47
2023-05-20T07:09:26.365Z,3.93
2023-05-20T07:11:53.236Z,3.47
2023-05-20T07:14:20.116Z,3.37
2023-05-20T07:16:47.033Z,2.73
2023-05-20T07:19:13.962Z,2.47
2023-05-20T07:21:41.359Z,2.80
2023-05-20T07:24:08.201Z,2.83
2023-05-20T07:26:44.000Z,2.63
2023-05-20T07:32:51.517Z,3.00
2023-05-20T07:39:03.529Z,3.17
2023-05-20T07:41:35.277Z,3.60
2023-05-20T07:44:04.497Z,3.40
2023-05-20T07:46:31.718Z,2.70
2023-05-20T07:48:58.622Z,2.93
2023-05-20T07:51:25.473Z,3.20
2023-05-20T07:53:55.431Z,2.73
2023-05-20T07:56:22.406Z,3.00
2023-05-20T07:58:58.440Z,2.97
2023-05-20T08:01:27.229Z,3.30
2023-05-20T08:03:54.291Z,2.53
2023-05-20T08:06:21.673Z,3.13
2023-05-20T08:08:48.488Z,2.53
2023-05-20T08:11:15.527Z,3.00
2023-05-20T08:13:42.414Z,2.83
2023-05-20T08:16:09.327Z,4.30
2023-05-20T08:18:39.601Z,3.03
2023-05-20T08:21:10.098Z,3.23
2023-05-20T08:23:39.655Z,2.70
2023-05-20T08:26:07.765Z,2.50
2023-05-20T08:28:37.176Z,3.27
2023-05-20T08:31:04.142Z,2.73
2023-05-20T08:33:31.038Z,2.57
2023-05-20T08:35:57.900Z,3.27
2023-05-20T08:38:24.758Z,2.87
2023-05-20T08:40:56.675Z,2.83
2023-05-20T08:43:24.426Z,3.00
2023-05-20T08:45:54.999Z,2.80
2023-05-20T08:48:25.841Z,2.73
2023-05-20T08:50:53.711Z,2.50
2023-05-20T08:53:24.056Z,2.70
2023-05-20T08:56:00.772Z,3.60
2023-05-20T08:58:32.894Z,4.27
2023-05-20T09:01:00.209Z,3.70
2023-05-20T09:03:27.603Z,3.00
2023-05-20T09:06:03.249Z,3.60
2023-05-20T09:08:31.285Z,3.60
2023-05-20T09:10:58.148Z,3.70
2023-05-20T09:13:25.180Z,3.40
2023-05-20T09:15:52.407Z,3.23
2023-05-20T09:18:19.584Z,3.40
2023-05-20T09:20:50.850Z,2.80
2023-05-20T09:23:20.325Z,3.27
2023-05-20T09:25:50.383Z,2.93
2023-05-20T09:28:17.901Z,3.07
2023-05-20T09:30:46.164Z,3.23
2023-05-20T09:33:13.997Z,6.00
2023-05-20T09:35:41.676Z,3.80
2023-05-20T09:38:10.586Z,3.43
2023-05-20T09:40:41.199Z,3.37
2023-05-20T09:43:08.862Z,4.00
2023-05-20T09:45:36.380Z,3.50
2023-05-20T09:48:05.803Z,3.77
2023-05-20T09:50:33.157Z,5.00
2023-05-20T09:53:03.543Z,3.20
2023-05-20T09:55:31.873Z,3.57
2023-05-20T09:58:03.386Z,3.87
2023-05-20T10:00:30.818Z,3.87
2023-05-20T10:02:58.519Z,4.00
2023-05-20T10:05:33.434Z,4.10
2023-05-20T10:08:19.231Z,3.50
2023-05-20T10:11:12.675Z,3.07
2023-05-20T10:13:42.882Z,3.50
2023-05-20T10:16:31.528Z,5.73
2023-05-20T10:19:13.669Z,3.90
2023-05-20T10:21:40.736Z,3.77
2023-05-20T10:24:11.258Z,3.47
2023-05-20T10:26:39.813Z,3.77
2023-05-20T10:29:20.120Z,2.93
2023-05-20T10:31:52.240Z,3.53
2023-05-20T10:34:20.742Z,4.00
2023-05-20T10:37:07.956Z,3.63
2023-05-20T10:39:34.785Z,3.67
2023-05-20T10:42:08.469Z,4.20
2023-05-20T10:44:46.668Z,4.30
2023-05-20T10:49:47.634Z,3.70
2023-05-20T10:52:15.768Z,4.10
2023-05-20T10:55:01.566Z,5.10
2023-05-20T10:57:29.685Z,3.97
2023-05-20T10:59:57.199Z,5.80
2023-05-20T11:02:28.728Z,4.83
2023-05-20T11:04:59.682Z,3.67
2023-05-20T11:07:29.271Z,3.60
2023-05-20T11:09:56.961Z,4.87
2023-05-20T11:12:25.878Z,8.53
2023-05-20T11:14:53.581Z,4.33
2023-05-20T11:17:20.798Z,3.80
2023-05-20T11:19:48.516Z,3.97
2023-05-20T11:22:15.676Z,7.43
2023-05-20T11:24:42.536Z,4.60
2023-05-20T11:27:09.733Z,3.70
2023-05-20T11:29:37.039Z,3.40
2023-05-20T11:32:04.180Z,3.70
2023-05-20T11:34:39.367Z,3.70
2023-05-20T11:37:10.297Z,3.77
2023-05-20T11:39:38.121Z,3.60
2023-05-20T11:42:06.213Z,4.10
2023-05-20T11:44:33.333Z,3.90
2023-05-20T11:47:02.352Z,3.43
2023-05-20T11:49:29.429Z,4.20
2023-05-20T11:51:57.670Z,4.77
2023-05-20T11:54:25.114Z,4.30
2023-05-20T11:56:54.339Z,3.43
2023-05-20T11:59:24.454Z,3.50
2023-05-20T12:01:51.534Z,3.57
2023-05-20T12:04:18.888Z,4.20
2023-05-20T12:06:46.931Z,4.20
2023-05-20T12:09:14.449Z,3.63
2023-05-20T12:11:42.110Z,4.03
2023-05-20T12:14:09.532Z,3.50
2023-05-20T12:16:39.345Z,4.10
2023-05-20T12:19:06.393Z,4.63
2023-05-20T12:21:33.332Z,4.40
2023-05-20T12:24:00.267Z,4.50
2023-05-20T12:26:28.692Z,4.50
2023-05-20T12:28:56.174Z,3.60
2023-05-20T12:31:23.492Z,3.80
2023-05-20T12:33:50.755Z,3.80
2023-05-20T12:36:19.778Z,4.10
2023-05-20T12:38:47.036Z,3.97
2023-05-20T12:41:14.071Z,3.97
2023-05-20T12:43:40.963Z,3.60
2023-05-20T12:46:08.169Z,4.37
2023-05-20T12:48:35.054Z,4.50
2023-05-20T12:51:02.017Z,3.77
2023-05-20T12:53:28.828Z,3.70
2023-05-20T12:55:55.889Z,3.60
2023-05-20T12:58:22.825Z,4.07
2023-05-20T13:00:49.935Z,5.27
2023-05-20T13:03:17.069Z,4.47
2023-05-20T13:05:44.151Z,4.40
2023-05-20T13:08:12.744Z,3.43
2023-05-20T13:10:39.541Z,4.80
2023-05-20T13:13:06.387Z,3.70
2023-05-20T13:15:33.714Z,4.17
2023-05-20T13:18:01.619Z,4.20
2023-05-20T13:20:30.087Z,4.27
2023-05-20T13:22:57.161Z,3.43
2023-05-20T13:25:24.002Z,4.83
2023-05-20T13:27:50.992Z,3.63
2023-05-20T13:30:18.050Z,4.37
2023-05-20T13:32:45.077Z,4.00
2023-05-20T13:35:13.187Z,4.10
2023-05-20T13:37:40.183Z,4.37
2023-05-20T13:40:07.666Z,4.10
2023-05-20T13:42:34.557Z,3.63
2023-05-20T13:45:01.435Z,3.70
2023-05-20T13:47:28.366Z,4.50
2023-05-20T13:49:55.258Z,4.60
2023-05-20T13:52:22.116Z,4.67
2023-05-20T13:54:48.969Z,4.20
2023-05-20T13:57:16.244Z,4.07
2023-05-20T13:59:43.913Z,4.67
2023-05-20T14:02:11.322Z,4.17
2023-05-20T14:04:40.393Z,3.83
2023-05-20T14:07:09.586Z,3.70
2023-05-20T14:09:36.880Z,4.03
2023-05-20T14:12:04.312Z,3.87
2023-05-20T14:14:31.117Z,3.30
2023-05-20T14:16:58.314Z,3.80
2023-05-20T14:19:26.326Z,4.13
2023-05-20T14:21:53.220Z,3.40
2023-05-20T14:24:21.374Z,3.70
2023-05-20T14:26:49.794Z,4.20
2023-05-20T14:29:16.669Z,4.00
2023-05-20T14:31:43.617Z,4.57
2023-05-20T14:34:10.776Z,4.23
2023-05-20T14:36:40.110Z,3.93
2023-05-20T14:39:06.929Z,3.70
2023-05-20T14:41:33.735Z,4.60
2023-05-20T14:44:00.672Z,3.90
2023-05-20T14:46:27.644Z,4.53
2023-05-20T14:48:54.514Z,4.33
2023-05-20T14:51:21.358Z,4.10
2023-05-20T14:53:48.202Z,4.47
2023-05-20T14:56:14.996Z,3.60
2023-05-20T14:58:42.058Z,3.57
2023-05-20T15:01:09.290Z,3.40
2023-05-20T15:03:36.227Z,3.80
2023-05-20T15:06:03.187Z,3.17
2023-05-20T15:08:29.972Z,3.53
2023-05-20T15:10:56.989Z,4.17
2023-05-20T15:13:23.811Z,4.13
2023-05-20T15:15:50.615Z,4.00
2023-05-20T15:18:17.432Z,3.77
2023-05-20T15:20:44.570Z,3.30
2023-05-20T15:23:11.740Z,4.30
2023-05-20T15:25:38.514Z,4.07
2023-05-20T15:28:05.482Z,3.43
2023-05-20T15:30:33.223Z,3.60
2023-05-20T15:33:00.377Z,3.70
2023-05-20T15:35:27.265Z,3.47
2023-05-20T15:37:54.608Z,3.67
2023-05-20T15:40:21.857Z,3.30
2023-05-20T15:42:48.638Z,3.73
2023-05-20T15:45:15.473Z,3.63
2023-05-20T15:47:43.337Z,3.63
2023-05-20T15:50:11.396Z,3.37
2023-05-20T15:52:38.741Z,3.70
2023-05-20T15:55:06.524Z,3.77
2023-05-20T15:57:33.298Z,3.50
2023-05-20T16:00:00.257Z,3.73
2023-05-20T16:02:27.436Z,4.30
2023-05-20T16:04:54.397Z,3.57
2023-05-20T16:07:21.342Z,4.00
2023-05-20T16:09:48.160Z,4.07
2023-05-20T16:12:16.884Z,3.93
2023-05-20T16:14:44.797Z,3.53
2023-05-20T16:17:12.431Z,3.60
2023-05-20T16:19:39.395Z,3.77
2023-05-20T16:22:06.408Z,3.70
2023-05-20T16:24:33.229Z,3.60
2023-05-20T16:27:00.141Z,3.00
2023-05-20T16:29:27.240Z,3.70
2023-05-20T16:31:54.235Z,4.27
2023-05-20T16:34:21.212Z,3.87
2023-05-20T16:36:48.053Z,3.50
2023-05-20T16:39:15.572Z,4.30
2023-05-20T16:41:43.144Z,4.27
2023-05-20T16:44:10.421Z,3.90
2023-05-20T16:46:37.289Z,4.53
2023-05-20T16:49:04.226Z,4.07
2023-05-20T16:51:31.444Z,3.60
2023-05-20T16:53:58.224Z,3.50
2023-05-20T16:56:27.592Z,3.10
2023-05-20T16:58:54.453Z,4.10
2023-05-20T17:01:23.194Z,4.03
2023-05-20T17:03:50.247Z,3.80
2023-05-20T17:06:17.661Z,3.80
2023-05-20T17:08:44.448Z,5.60
2023-05-20T17:11:11.292Z,3.37
2023-05-20T17:13:38.465Z,3.10
2023-05-20T17:16:06.163Z,3.53
2023-05-20T17:18:34.059Z,3.40
2023-05-20T17:21:00.894Z,3.70
2023-05-20T17:23:27.779Z,3.47
2023-05-20T17:25:54.956Z,3.70
2023-05-20T17:28:21.738Z,3.70
2023-05-20T17:30:48.541Z,3.03
2023-05-20T17:33:16.114Z,3.17
2023-05-20T17:35:43.028Z,3.57
2023-05-20T17:38:09.884Z,2.73
2023-05-20T17:40:36.942Z,2.97
2023-05-20T17:43:04.092Z,2.97
2023-05-20T17:45:30.905Z,3.00
2023-05-20T17:47:57.944Z,3.20
2023-05-20T17:50:24.972Z,3.73
2023-05-20T17:52:51.812Z,3.27
2023-05-20T17:55:19.150Z,4.07
2023-05-20T17:57:46.120Z,4.00
2023-05-20T18:00:13.334Z,4.07
2023-05-20T18:02:40.226Z,3.90
2023-05-20T18:05:07.720Z,4.00
2023-05-20T18:07:37.695Z,4.10
2023-05-20T18:10:05.089Z,4.00
2023-05-20T18:12:32.005Z,3.47
2023-05-20T18:14:58.906Z,3.80
2023-05-20T18:17:25.871Z,3.60
2023-05-20T18:19:52.825Z,3.83
2023-05-20T18:22:19.869Z,3.53
2023-05-20T18:24:46.652Z,3.40
2023-05-20T18:27:13.643Z,3.40
2023-05-20T18:29:42.987Z,3.20
2023-05-20T18:32:09.972Z,3.80
2023-05-20T18:34:37.316Z,3.97
2023-05-20T18:37:04.329Z,4.07
2023-05-20T18:39:31.353Z,7.50
2023-05-20T18:41:58.208Z,3.30
2023-05-20T18:44:25.022Z,3.80
2023-05-20T18:46:51.852Z,3.50
2023-05-20T18:49:18.707Z,3.87
2023-05-20T18:51:45.554Z,3.60
2023-05-20T18:54:12.328Z,3.60
2023-05-20T18:56:39.153Z,4.53
2023-05-20T18:59:06.082Z,3.77
2023-05-20T19:01:33.916Z,3.90
2023-05-20T19:04:01.138Z,3.90
2023-05-20T19:06:28.041Z,3.37
2023-05-20T19:08:54.831Z,3.70
2023-05-20T19:11:21.998Z,4.20
2023-05-20T19:13:48.853Z,3.70
2023-05-20T19:16:15.706Z,3.53
2023-05-20T19:18:42.707Z,3.90
2023-05-20T19:21:09.621Z,4.40
2023-05-20T19:23:36.536Z,4.27
2023-05-20T19:26:03.416Z,5.10
2023-05-20T19:28:30.264Z,4.67
2023-05-20T19:30:57.206Z,4.40
2023-05-20T19:33:24.209Z,4.60
2023-05-20T19:35:51.342Z,4.60
2023-05-20T19:38:18.455Z,4.77
2023-05-20T19:40:45.619Z,3.87
2023-05-20T19:43:12.722Z,4.67
2023-05-20T19:45:39.741Z,3.80
2023-05-20T19:48:07.090Z,4.23
2023-05-20T19:50:34.266Z,4.47
2023-05-20T19:53:06.116Z,4.60
2023-05-20T19:55:33.931Z,4.10
2023-05-20T19:58:00.852Z,4.30
2023-05-20T20:00:27.707Z,4.43
2023-05-20T20:02:56.108Z,4.47
2023-05-20T20:05:23.947Z,4.23
2023-05-20T20:07:50.847Z,3.70
2023-05-20T20:10:17.782Z,4.63
2023-05-20T20:12:44.682Z,4.17
2023-05-20T20:15:11.865Z,4.07
2023-05-20T20:17:45.915Z,4.67
2023-05-20T20:20:16.903Z,4.47
2023-05-20T20:22:43.965Z,4.40
2023-05-20T20:25:14.097Z,4.67
2023-05-20T20:27:43.957Z,4.60
2023-05-20T20:30:15.025Z,5.80
2023-05-20T20:32:42.564Z,4.40
2023-05-20T20:35:10.055Z,5.13
2023-05-20T20:37:38.388Z,4.20
2023-05-20T20:40:08.118Z,6.07
2023-05-20T20:42:35.008Z,5.30
2023-05-20T20:45:02.481Z,4.93
2023-05-20T20:47:29.638Z,5.03
2023-05-20T20:49:56.881Z,5.37
2023-05-20T20:52:23.791Z,4.90
2023-05-20T20:54:50.742Z,4.73
2023-05-20T20:57:17.649Z,4.80
2023-05-20T20:59:47.903Z,5.30
2023-05-20T21:02:15.149Z,5.00
2023-05-20T21:04:42.816Z,4.80
2023-05-20T21:07:09.772Z,4.90
2023-05-20T21:09:36.733Z,4.80
2023-05-20T21:12:06.678Z,5.30
2023-05-20T21:14:33.864Z,5.97
2023-05-20T21:17:01.115Z,6.00
2023-05-20T21:19:28.607Z,6.00
2023-05-20T21:21:55.586Z,5.27
2023-05-20T21:24:22.521Z,6.10
2023-05-20T21:26:49.533Z,6.07
2023-05-20T21:29:16.382Z,5.70
2023-05-20T21:31:43.184Z,5.67
2023-05-20T21:34:10.002Z,5.20
2023-05-20T21:36:37.139Z,5.63
2023-05-20T21:39:04.116Z,6.00
2023-05-20T21:41:31.060Z,6.20
2023-05-20T21:43:58.024Z,6.13
2023-05-20T21:46:24.937Z,6.47
2023-05-20T21:48:51.813Z,5.77
2023-05-20T21:51:18.611Z,6.43
2023-05-20T21:53:45.906Z,6.67
2023-05-20T21:56:12.901Z,6.50
2023-05-20T21:58:41.718Z,7.30
2023-05-20T22:01:09.967Z,6.17
2023-05-20T22:03:38.256Z,6.67
2023-05-20T22:06:05.948Z,6.27
2023-05-20T22:08:35.923Z,7.00
2023-05-20T22:11:07.425Z,7.27
2023-05-20T22:13:35.761Z,7.07
2023-05-20T22:16:05.205Z,7.17
2023-05-20T22:18:32.288Z,7.07
2023-05-20T22:20:59.424Z,5.80
2023-05-20T22:23:27.276Z,6.47
2023-05-20T22:25:55.097Z,6.57
2023-05-20T22:28:23.843Z,6.87
2023-05-20T22:30:51.542Z,6.40
2023-05-20T22:33:18.669Z,5.90
2023-05-20T22:35:45.480Z,6.20
2023-05-20T22:38:12.509Z,5.83
2023-05-20T22:40:39.447Z,5.97
2023-05-20T22:43:06.361Z,5.70
2023-05-20T22:45:33.572Z,5.63
2023-05-20T22:48:02.092Z,5.97
2023-05-20T22:50:28.995Z,5.50
2023-05-20T22:52:56.001Z,6.90
2023-05-20T22:55:23.952Z,5.80
2023-05-20T22:57:51.066Z,5.57
2023-05-20T23:00:18.525Z,5.63
2023-05-20T23:02:49.742Z,5.90
2023-05-20T23:05:17.387Z,5.70
2023-05-20T23:07:44.902Z,5.93
2023-05-20T23:10:11.948Z,5.10
2023-05-20T23:12:39.937Z,6.07
2023-05-20T23:15:07.567Z,4.80
2023-05-20T23:17:34.406Z,5.77
2023-05-20T23:20:01.328Z,5.00
2023-05-20T23:22:28.149Z,4.37
2023-05-20T23:24:54.987Z,4.90
2023-05-20T23:27:21.871Z,4.73
2023-05-20T23:29:48.724Z,4.80
2023-05-20T23:32:15.804Z,4.77
2023-05-20T23:34:43.649Z,5.23
2023-05-20T23:37:10.487Z,4.80
2023-05-20T23:39:37.462Z,4.73
2023-05-20T23:42:05.213Z,4.53
2023-05-20T23:44:32.058Z,4.80
2023-05-20T23:46:58.880Z,5.33
2023-05-20T23:49:27.236Z,5.47
2023-05-20T23:51:54.203Z,5.13
2023-05-20T23:54:21.235Z,4.00
2023-05-20T23:56:48.125Z,4.97
2023-05-20T23:59:15.360Z,4.77
